sensor_id;sensor_type;location;lat;lon;timestamp;P1;durP1;ratioP1;P2;durP2;ratioP2
11539;SDS011;5826;54.756;9.192;2023-03-04T00:00:43;8.93;;;1.97;;
11539;SDS011;5826;54.756;9.192;2023-03-04T00:03:10;8.53;;;1.90;;
11539;SDS011;5826;54.756;9.192;2023-03-04T00:05:36;9.20;;;1.97;;
11539;SDS011;5826;54.756;9.192;2023-03-04T00:08:02;6.10;;;1.60;;
11539;SDS011;5826;54.756;9.192;2023-03-04T00:10:28;7.37;;;1.63;;
11539;SDS011;5826;54.756;9.192;2023-03-04T00:12:53;8.67;;;1.90;;
11539;SDS011;5826;54.756;9.192;2023-03-04T00:15:19;8.17;;;1.90;;
11539;SDS011;5826;54.756;9.192;2023-03-04T00:17:44;10.97;;;2.30;;
11539;SDS011;5826;54.756;9.192;2023-03-04T00:20:10;7.67;;;1.60;;
11539;SDS011;5826;54.756;9.192;2023-03-04T00:22:36;5.27;;;1.70;;
11539;SDS011;5826;54.756;9.192;2023-03-04T00:25:02;6.67;;;1.57;;
11539;SDS011;5826;54.756;9.192;2023-03-04T00:27:28;5.43;;;1.57;;
11539;SDS011;5826;54.756;9.192;2023-03-04T00:29:54;5.90;;;1.50;;
11539;SDS011;5826;54.756;9.192;2023-03-04T00:32:19;6.97;;;1.50;;
11539;SDS011;5826;54.756;9.192;2023-03-04T00:34:45;8.27;;;1.70;;
11539;SDS011;5826;54.756;9.192;2023-03-04T00:37:11;6.97;;;1.90;;
11539;SDS011;5826;54.756;9.192;2023-03-04T00:39:36;5.23;;;1.30;;
11539;SDS011;5826;54.756;9.192;2023-03-04T00:42:02;6.53;;;1.73;;
11539;SDS011;5826;54.756;9.192;2023-03-04T00:44:27;6.70;;;1.80;;
11539;SDS011;5826;54.756;9.192;2023-03-04T00:46:53;4.90;;;1.40;;
11539;SDS011;5826;54.756;9.192;2023-03-04T00:49:18;5.53;;;1.73;;
11539;SDS011;5826;54.756;9.192;2023-03-04T00:51:44;5.97;;;1.30;;
11539;SDS011;5826;54.756;9.192;2023-03-04T00:54:10;8.70;;;1.90;;
11539;SDS011;5826;54.756;9.192;2023-03-04T00:56:36;3.57;;;1.20;;
11539;SDS011;5826;54.756;9.192;2023-03-04T00:59:01;6.10;;;1.50;;
11539;SDS011;5826;54.756;9.192;2023-03-04T01:01:27;8.70;;;1.90;;
11539;SDS011;5826;54.756;9.192;2023-03-04T01:03:52;9.33;;;1.53;;
11539;SDS011;5826;54.756;9.192;2023-03-04T01:06:18;5.80;;;1.70;;
11539;SDS011;5826;54.756;9.192;2023-03-04T01:08:43;7.77;;;1.93;;
11539;SDS011;5826;54.756;9.192;2023-03-04T01:11:09;9.07;;;1.80;;
11539;SDS011;5826;54.756;9.192;2023-03-04T01:13:34;9.90;;;1.80;;
11539;SDS011;5826;54.756;9.192;2023-03-04T01:16:00;6.40;;;1.37;;
11539;SDS011;5826;54.756;9.192;2023-03-04T01:18:27;6.27;;;1.80;;
11539;SDS011;5826;54.756;9.192;2023-03-04T01:20:53;4.93;;;1.63;;
11539;SDS011;5826;54.756;9.192;2023-03-04T01:23:18;6.90;;;1.67;;
11539;SDS011;5826;54.756;9.192;2023-03-04T01:25:44;8.07;;;1.90;;
11539;SDS011;5826;54.756;9.192;2023-03-04T01:28:09;8.83;;;1.67;;
11539;SDS011;5826;54.756;9.192;2023-03-04T01:30:35;7.60;;;1.60;;
11539;SDS011;5826;54.756;9.192;2023-03-04T01:33:00;7.43;;;1.83;;
11539;SDS011;5826;54.756;9.192;2023-03-04T01:35:26;6.53;;;1.47;;
11539;SDS011;5826;54.756;9.192;2023-03-04T01:37:51;5.07;;;1.70;;
11539;SDS011;5826;54.756;9.192;2023-03-04T01:40:17;7.27;;;1.90;;
11539;SDS011;5826;54.756;9.192;2023-03-04T01:42:43;5.50;;;1.23;;
11539;SDS011;5826;54.756;9.192;2023-03-04T01:45:11;7.33;;;1.40;;
11539;SDS011;5826;54.756;9.192;2023-03-04T01:47:43;6.57;;;1.27;;
11539;SDS011;5826;54.756;9.192;2023-03-04T01:50:16;5.03;;;1.43;;
11539;SDS011;5826;54.756;9.192;2023-03-04T01:52:56;6.80;;;1.33;;
11539;SDS011;5826;54.756;9.192;2023-03-04T01:55:22;7.33;;;1.83;;
11539;SDS011;5826;54.756;9.192;2023-03-04T01:57:49;7.53;;;1.50;;
11539;SDS011;5826;54.756;9.192;2023-03-04T02:00:24;6.50;;;1.60;;
11539;SDS011;5826;54.756;9.192;2023-03-04T02:02:58;7.37;;;2.50;;
11539;SDS011;5826;54.756;9.192;2023-03-04T02:05:26;7.03;;;1.67;;
11539;SDS011;5826;54.756;9.192;2023-03-04T02:07:53;9.40;;;1.83;;
11539;SDS011;5826;54.756;9.192;2023-03-04T02:10:20;6.40;;;2.10;;
11539;SDS011;5826;54.756;9.192;2023-03-04T02:12:46;10.07;;;2.27;;
11539;SDS011;5826;54.756;9.192;2023-03-04T02:15:12;9.13;;;2.20;;
11539;SDS011;5826;54.756;9.192;2023-03-04T02:17:38;7.70;;;2.00;;
11539;SDS011;5826;54.756;9.192;2023-03-04T02:22:51;9.23;;;2.20;;
11539;SDS011;5826;54.756;9.192;2023-03-04T02:25:25;9.50;;;2.20;;
11539;SDS011;5826;54.756;9.192;2023-03-04T02:27:57;10.17;;;2.23;;
11539;SDS011;5826;54.756;9.192;2023-03-04T02:30:23;9.10;;;2.33;;
11539;SDS011;5826;54.756;9.192;2023-03-04T02:32:49;9.47;;;2.40;;
11539;SDS011;5826;54.756;9.192;2023-03-04T02:35:16;8.87;;;2.00;;
11539;SDS011;5826;54.756;9.192;2023-03-04T02:37:42;10.80;;;2.30;;
11539;SDS011;5826;54.756;9.192;2023-03-04T02:40:11;9.10;;;2.30;;
11539;SDS011;5826;54.756;9.192;2023-03-04T02:42:42;9.03;;;2.27;;
11539;SDS011;5826;54.756;9.192;2023-03-04T02:45:26;12.77;;;3.13;;
11539;SDS011;5826;54.756;9.192;2023-03-04T02:48:11;13.13;;;2.50;;
11539;SDS011;5826;54.756;9.192;2023-03-04T02:50:41;14.47;;;2.80;;
11539;SDS011;5826;54.756;9.192;2023-03-04T02:53:09;13.80;;;2.70;;
11539;SDS011;5826;54.756;9.192;2023-03-04T02:55:35;10.77;;;2.90;;
11539;SDS011;5826;54.756;9.192;2023-03-04T02:58:01;16.07;;;3.23;;
11539;SDS011;5826;54.756;9.192;2023-03-04T03:00:27;16.57;;;3.40;;
11539;SDS011;5826;54.756;9.192;2023-03-04T03:02:52;13.93;;;3.00;;
11539;SDS011;5826;54.756;9.192;2023-03-04T03:05:20;12.87;;;2.87;;
11539;SDS011;5826;54.756;9.192;2023-03-04T03:07:47;15.37;;;3.33;;
11539;SDS011;5826;54.756;9.192;2023-03-04T03:10:12;8.07;;;2.60;;
11539;SDS011;5826;54.756;9.192;2023-03-04T03:12:38;13.23;;;3.27;;
11539;SDS011;5826;54.756;9.192;2023-03-04T03:15:04;19.20;;;3.90;;
11539;SDS011;5826;54.756;9.192;2023-03-04T03:17:30;15.23;;;3.53;;
11539;SDS011;5826;54.756;9.192;2023-03-04T03:19:55;15.03;;;3.70;;
11539;SDS011;5826;54.756;9.192;2023-03-04T03:22:21;8.83;;;3.03;;
11539;SDS011;5826;54.756;9.192;2023-03-04T03:24:46;20.90;;;3.83;;
11539;SDS011;5826;54.756;9.192;2023-03-04T03:27:12;11.83;;;3.37;;
11539;SDS011;5826;54.756;9.192;2023-03-04T03:29:37;14.20;;;3.47;;
11539;SDS011;5826;54.756;9.192;2023-03-04T03:32:03;12.47;;;3.30;;
11539;SDS011;5826;54.756;9.192;2023-03-04T03:34:28;17.60;;;3.63;;
11539;SDS011;5826;54.756;9.192;2023-03-04T03:36:54;16.63;;;3.17;;
11539;SDS011;5826;54.756;9.192;2023-03-04T03:39:20;13.97;;;3.57;;
11539;SDS011;5826;54.756;9.192;2023-03-04T03:41:46;17.20;;;3.60;;
11539;SDS011;5826;54.756;9.192;2023-03-04T03:44:11;12.93;;;2.70;;
11539;SDS011;5826;54.756;9.192;2023-03-04T03:46:37;13.20;;;3.10;;
11539;SDS011;5826;54.756;9.192;2023-03-04T03:49:02;15.73;;;2.93;;
11539;SDS011;5826;54.756;9.192;2023-03-04T03:51:28;12.30;;;2.63;;
11539;SDS011;5826;54.756;9.192;2023-03-04T03:53:53;14.07;;;3.03;;
11539;SDS011;5826;54.756;9.192;2023-03-04T03:56:19;12.90;;;2.53;;
11539;SDS011;5826;54.756;9.192;2023-03-04T03:58:44;10.60;;;2.63;;
11539;SDS011;5826;54.756;9.192;2023-03-04T04:01:10;11.93;;;2.13;;
11539;SDS011;5826;54.756;9.192;2023-03-04T04:03:35;9.03;;;2.20;;
11539;SDS011;5826;54.756;9.192;2023-03-04T04:06:01;13.83;;;2.93;;
11539;SDS011;5826;54.756;9.192;2023-03-04T04:08:26;11.07;;;2.47;;
11539;SDS011;5826;54.756;9.192;2023-03-04T04:10:52;5.50;;;1.97;;
11539;SDS011;5826;54.756;9.192;2023-03-04T04:13:17;8.13;;;2.03;;
11539;SDS011;5826;54.756;9.192;2023-03-04T04:15:42;10.50;;;2.23;;
11539;SDS011;5826;54.756;9.192;2023-03-04T04:18:08;8.57;;;1.70;;
11539;SDS011;5826;54.756;9.192;2023-03-04T04:20:34;8.40;;;1.80;;
11539;SDS011;5826;54.756;9.192;2023-03-04T04:22:59;7.60;;;2.07;;
11539;SDS011;5826;54.756;9.192;2023-03-04T04:25:25;6.43;;;1.87;;
11539;SDS011;5826;54.756;9.192;2023-03-04T04:27:51;10.10;;;2.57;;
11539;SDS011;5826;54.756;9.192;2023-03-04T04:30:16;9.37;;;1.97;;
11539;SDS011;5826;54.756;9.192;2023-03-04T04:32:42;10.53;;;2.37;;
11539;SDS011;5826;54.756;9.192;2023-03-04T04:35:08;8.20;;;2.23;;
11539;SDS011;5826;54.756;9.192;2023-03-04T04:37:33;8.77;;;2.17;;
11539;SDS011;5826;54.756;9.192;2023-03-04T04:39:59;8.70;;;2.20;;
11539;SDS011;5826;54.756;9.192;2023-03-04T04:42:24;7.53;;;1.90;;
11539;SDS011;5826;54.756;9.192;2023-03-04T04:44:50;9.67;;;2.33;;
11539;SDS011;5826;54.756;9.192;2023-03-04T04:47:16;7.10;;;2.13;;
11539;SDS011;5826;54.756;9.192;2023-03-04T04:49:42;7.00;;;2.07;;
11539;SDS011;5826;54.756;9.192;2023-03-04T04:52:08;17.13;;;3.00;;
11539;SDS011;5826;54.756;9.192;2023-03-04T04:54:33;9.67;;;2.50;;
11539;SDS011;5826;54.756;9.192;2023-03-04T04:56:59;8.10;;;2.63;;
11539;SDS011;5826;54.756;9.192;2023-03-04T04:59:24;11.13;;;2.53;;
11539;SDS011;5826;54.756;9.192;2023-03-04T05:01:50;13.17;;;2.93;;
11539;SDS011;5826;54.756;9.192;2023-03-04T05:04:16;8.53;;;2.90;;
11539;SDS011;5826;54.756;9.192;2023-03-04T05:06:41;10.83;;;2.73;;
11539;SDS011;5826;54.756;9.192;2023-03-04T05:09:07;10.00;;;2.60;;
11539;SDS011;5826;54.756;9.192;2023-03-04T05:11:32;13.30;;;3.20;;
11539;SDS011;5826;54.756;9.192;2023-03-04T05:13:58;12.37;;;2.60;;
11539;SDS011;5826;54.756;9.192;2023-03-04T05:16:23;13.30;;;2.67;;
11539;SDS011;5826;54.756;9.192;2023-03-04T05:18:49;13.70;;;3.10;;
11539;SDS011;5826;54.756;9.192;2023-03-04T05:21:14;15.90;;;3.10;;
11539;SDS011;5826;54.756;9.192;2023-03-04T05:23:40;12.33;;;3.50;;
11539;SDS011;5826;54.756;9.192;2023-03-04T05:26:07;11.83;;;3.07;;
11539;SDS011;5826;54.756;9.192;2023-03-04T05:28:36;9.13;;;2.47;;
11539;SDS011;5826;54.756;9.192;2023-03-04T05:31:02;9.87;;;2.50;;
11539;SDS011;5826;54.756;9.192;2023-03-04T05:33:28;13.10;;;2.90;;
11539;SDS011;5826;54.756;9.192;2023-03-04T05:35:53;14.83;;;3.17;;
11539;SDS011;5826;54.756;9.192;2023-03-04T05:38:19;12.50;;;3.10;;
11539;SDS011;5826;54.756;9.192;2023-03-04T05:40:46;9.60;;;2.20;;
11539;SDS011;5826;54.756;9.192;2023-03-04T05:43:12;15.50;;;3.20;;
11539;SDS011;5826;54.756;9.192;2023-03-04T05:45:39;8.00;;;2.50;;
11539;SDS011;5826;54.756;9.192;2023-03-04T05:48:05;12.30;;;3.17;;
11539;SDS011;5826;54.756;9.192;2023-03-04T05:50:30;15.87;;;3.07;;
11539;SDS011;5826;54.756;9.192;2023-03-04T05:52:56;10.40;;;2.53;;
11539;SDS011;5826;54.756;9.192;2023-03-04T05:55:22;9.27;;;2.53;;
11539;SDS011;5826;54.756;9.192;2023-03-04T05:57:47;12.63;;;3.50;;
11539;SDS011;5826;54.756;9.192;2023-03-04T06:00:13;11.43;;;2.67;;
11539;SDS011;5826;54.756;9.192;2023-03-04T06:02:40;11.83;;;2.87;;
11539;SDS011;5826;54.756;9.192;2023-03-04T06:05:07;15.13;;;3.70;;
11539;SDS011;5826;54.756;9.192;2023-03-04T06:07:33;15.27;;;3.77;;
11539;SDS011;5826;54.756;9.192;2023-03-04T06:09:59;11.57;;;2.47;;
11539;SDS011;5826;54.756;9.192;2023-03-04T06:12:25;13.77;;;2.80;;
11539;SDS011;5826;54.756;9.192;2023-03-04T06:14:52;12.27;;;2.80;;
11539;SDS011;5826;54.756;9.192;2023-03-04T06:17:18;12.47;;;3.13;;
11539;SDS011;5826;54.756;9.192;2023-03-04T06:19:43;15.60;;;3.37;;
11539;SDS011;5826;54.756;9.192;2023-03-04T06:22:09;15.20;;;3.50;;
11539;SDS011;5826;54.756;9.192;2023-03-04T06:24:35;13.63;;;3.13;;
11539;SDS011;5826;54.756;9.192;2023-03-04T06:27:00;12.37;;;3.33;;
11539;SDS011;5826;54.756;9.192;2023-03-04T06:29:26;18.73;;;3.17;;
11539;SDS011;5826;54.756;9.192;2023-03-04T06:31:52;12.30;;;3.30;;
11539;SDS011;5826;54.756;9.192;2023-03-04T06:34:18;11.70;;;2.83;;
11539;SDS011;5826;54.756;9.192;2023-03-04T06:36:43;12.33;;;3.10;;
11539;SDS011;5826;54.756;9.192;2023-03-04T06:39:09;11.47;;;2.60;;
11539;SDS011;5826;54.756;9.192;2023-03-04T06:41:36;18.13;;;3.13;;
11539;SDS011;5826;54.756;9.192;2023-03-04T06:44:02;11.97;;;3.10;;
11539;SDS011;5826;54.756;9.192;2023-03-04T06:46:28;11.53;;;2.63;;
11539;SDS011;5826;54.756;9.192;2023-03-04T06:48:54;12.30;;;3.13;;
11539;SDS011;5826;54.756;9.192;2023-03-04T06:51:20;12.20;;;2.73;;
11539;SDS011;5826;54.756;9.192;2023-03-04T06:53:46;10.57;;;2.90;;
11539;SDS011;5826;54.756;9.192;2023-03-04T06:56:12;10.03;;;2.90;;
11539;SDS011;5826;54.756;9.192;2023-03-04T06:58:40;13.20;;;3.43;;
11539;SDS011;5826;54.756;9.192;2023-03-04T07:03:38;16.67;;;3.57;;
11539;SDS011;5826;54.756;9.192;2023-03-04T07:06:05;14.23;;;3.57;;
11539;SDS011;5826;54.756;9.192;2023-03-04T07:08:30;11.80;;;2.90;;
11539;SDS011;5826;54.756;9.192;2023-03-04T07:10:56;19.63;;;3.33;;
11539;SDS011;5826;54.756;9.192;2023-03-04T07:13:21;11.33;;;3.03;;
11539;SDS011;5826;54.756;9.192;2023-03-04T07:15:47;13.97;;;3.70;;
11539;SDS011;5826;54.756;9.192;2023-03-04T07:18:12;13.47;;;3.47;;
11539;SDS011;5826;54.756;9.192;2023-03-04T07:20:38;12.03;;;2.93;;
11539;SDS011;5826;54.756;9.192;2023-03-04T07:23:03;15.50;;;3.13;;
11539;SDS011;5826;54.756;9.192;2023-03-04T07:25:29;12.50;;;2.67;;
11539;SDS011;5826;54.756;9.192;2023-03-04T07:27:54;16.13;;;3.37;;
11539;SDS011;5826;54.756;9.192;2023-03-04T07:30:20;14.10;;;3.50;;
11539;SDS011;5826;54.756;9.192;2023-03-04T07:32:45;14.20;;;3.80;;
11539;SDS011;5826;54.756;9.192;2023-03-04T07:35:11;15.20;;;2.97;;
11539;SDS011;5826;54.756;9.192;2023-03-04T07:37:36;9.60;;;3.10;;
11539;SDS011;5826;54.756;9.192;2023-03-04T07:40:04;12.60;;;3.53;;
11539;SDS011;5826;54.756;9.192;2023-03-04T07:42:32;15.90;;;3.03;;
11539;SDS011;5826;54.756;9.192;2023-03-04T07:44:57;15.83;;;3.43;;
11539;SDS011;5826;54.756;9.192;2023-03-04T07:47:25;13.67;;;3.23;;
11539;SDS011;5826;54.756;9.192;2023-03-04T07:49:51;14.83;;;3.13;;
11539;SDS011;5826;54.756;9.192;2023-03-04T07:52:17;11.30;;;2.83;;
11539;SDS011;5826;54.756;9.192;2023-03-04T07:54:43;15.50;;;3.47;;
11539;SDS011;5826;54.756;9.192;2023-03-04T07:57:08;13.20;;;3.10;;
11539;SDS011;5826;54.756;9.192;2023-03-04T07:59:34;10.17;;;2.60;;
11539;SDS011;5826;54.756;9.192;2023-03-04T08:01:59;13.20;;;3.23;;
11539;SDS011;5826;54.756;9.192;2023-03-04T08:04:25;14.43;;;3.30;;
11539;SDS011;5826;54.756;9.192;2023-03-04T08:06:50;12.27;;;3.03;;
11539;SDS011;5826;54.756;9.192;2023-03-04T08:09:16;14.93;;;3.30;;
11539;SDS011;5826;54.756;9.192;2023-03-04T08:11:41;11.83;;;2.60;;
11539;SDS011;5826;54.756;9.192;2023-03-04T08:14:07;13.33;;;3.10;;
11539;SDS011;5826;54.756;9.192;2023-03-04T08:16:37;13.27;;;3.03;;
11539;SDS011;5826;54.756;9.192;2023-03-04T08:19:04;17.47;;;3.73;;
11539;SDS011;5826;54.756;9.192;2023-03-04T08:21:30;11.03;;;3.20;;
11539;SDS011;5826;54.756;9.192;2023-03-04T08:23:56;15.63;;;4.13;;
11539;SDS011;5826;54.756;9.192;2023-03-04T08:26:27;10.60;;;2.80;;
11539;SDS011;5826;54.756;9.192;2023-03-04T08:28:59;13.93;;;2.90;;
11539;SDS011;5826;54.756;9.192;2023-03-04T08:31:25;14.33;;;3.27;;
11539;SDS011;5826;54.756;9.192;2023-03-04T08:33:51;11.10;;;2.33;;
11539;SDS011;5826;54.756;9.192;2023-03-04T08:36:17;15.27;;;2.90;;
11539;SDS011;5826;54.756;9.192;2023-03-04T08:38:42;13.53;;;2.73;;
11539;SDS011;5826;54.756;9.192;2023-03-04T08:41:08;8.73;;;2.27;;
11539;SDS011;5826;54.756;9.192;2023-03-04T08:43:34;14.87;;;2.87;;
11539;SDS011;5826;54.756;9.192;2023-03-04T08:46:00;12.73;;;2.43;;
11539;SDS011;5826;54.756;9.192;2023-03-04T08:48:25;12.43;;;2.93;;
11539;SDS011;5826;54.756;9.192;2023-03-04T08:50:51;12.17;;;2.43;;
11539;SDS011;5826;54.756;9.192;2023-03-04T08:53:17;11.03;;;2.73;;
11539;SDS011;5826;54.756;9.192;2023-03-04T08:55:44;13.07;;;3.07;;
11539;SDS011;5826;54.756;9.192;2023-03-04T08:58:10;11.43;;;2.60;;
11539;SDS011;5826;54.756;9.192;2023-03-04T09:00:37;8.57;;;2.27;;
11539;SDS011;5826;54.756;9.192;2023-03-04T09:03:04;12.43;;;2.47;;
11539;SDS011;5826;54.756;9.192;2023-03-04T09:05:30;9.97;;;2.90;;
11539;SDS011;5826;54.756;9.192;2023-03-04T09:07:56;13.97;;;2.67;;
11539;SDS011;5826;54.756;9.192;2023-03-04T09:10:21;5.83;;;2.00;;
11539;SDS011;5826;54.756;9.192;2023-03-04T09:12:47;9.40;;;2.23;;
11539;SDS011;5826;54.756;9.192;2023-03-04T09:15:13;8.07;;;1.87;;
11539;SDS011;5826;54.756;9.192;2023-03-04T09:17:38;8.93;;;2.23;;
11539;SDS011;5826;54.756;9.192;2023-03-04T09:20:06;10.53;;;2.60;;
11539;SDS011;5826;54.756;9.192;2023-03-04T09:22:34;12.37;;;2.57;;
11539;SDS011;5826;54.756;9.192;2023-03-04T09:25:00;10.37;;;2.70;;
11539;SDS011;5826;54.756;9.192;2023-03-04T09:27:25;11.73;;;2.57;;
11539;SDS011;5826;54.756;9.192;2023-03-04T09:29:51;9.70;;;2.37;;
11539;SDS011;5826;54.756;9.192;2023-03-04T09:32:17;7.37;;;2.10;;
11539;SDS011;5826;54.756;9.192;2023-03-04T09:34:42;9.33;;;2.23;;
11539;SDS011;5826;54.756;9.192;2023-03-04T09:37:08;10.47;;;2.50;;
11539;SDS011;5826;54.756;9.192;2023-03-04T09:39:34;12.77;;;2.63;;
11539;SDS011;5826;54.756;9.192;2023-03-04T09:41:59;8.50;;;2.13;;
11539;SDS011;5826;54.756;9.192;2023-03-04T09:44:36;8.10;;;2.30;;
11539;SDS011;5826;54.756;9.192;2023-03-04T09:47:06;12.10;;;2.43;;
11539;SDS011;5826;54.756;9.192;2023-03-04T09:49:37;7.17;;;2.00;;
11539;SDS011;5826;54.756;9.192;2023-03-04T09:52:11;6.33;;;1.63;;
11539;SDS011;5826;54.756;9.192;2023-03-04T09:57:48;7.47;;;2.37;;
11539;SDS011;5826;54.756;9.192;2023-03-04T10:00:22;10.03;;;2.43;;
11539;SDS011;5826;54.756;9.192;2023-03-04T10:03:03;10.17;;;2.40;;
11539;SDS011;5826;54.756;9.192;2023-03-04T10:05:30;12.23;;;2.33;;
11539;SDS011;5826;54.756;9.192;2023-03-04T10:07:59;10.50;;;2.47;;
11539;SDS011;5826;54.756;9.192;2023-03-04T10:10:39;8.80;;;2.10;;
11539;SDS011;5826;54.756;9.192;2023-03-04T10:13:10;10.10;;;2.60;;
11539;SDS011;5826;54.756;9.192;2023-03-04T10:15:41;10.60;;;2.33;;
11539;SDS011;5826;54.756;9.192;2023-03-04T10:18:12;10.37;;;2.30;;
11539;SDS011;5826;54.756;9.192;2023-03-04T10:23:25;7.50;;;2.10;;
11539;SDS011;5826;54.756;9.192;2023-03-04T10:25:52;10.83;;;2.73;;
11539;SDS011;5826;54.756;9.192;2023-03-04T10:28:20;8.47;;;2.50;;
11539;SDS011;5826;54.756;9.192;2023-03-04T10:33:37;7.53;;;2.20;;
11539;SDS011;5826;54.756;9.192;2023-03-04T10:36:05;8.97;;;2.30;;
11539;SDS011;5826;54.756;9.192;2023-03-04T10:38:47;6.10;;;1.73;;
11539;SDS011;5826;54.756;9.192;2023-03-04T10:41:17;9.67;;;1.90;;
11539;SDS011;5826;54.756;9.192;2023-03-04T10:44:01;8.77;;;2.10;;
11539;SDS011;5826;54.756;9.192;2023-03-04T10:46:43;5.33;;;1.90;;
11539;SDS011;5826;54.756;9.192;2023-03-04T10:49:10;5.60;;;1.63;;
11539;SDS011;5826;54.756;9.192;2023-03-04T10:52:22;10.27;;;2.40;;
11539;SDS011;5826;54.756;9.192;2023-03-04T10:54:51;7.17;;;1.97;;
11539;SDS011;5826;54.756;9.192;2023-03-04T10:57:20;6.40;;;2.40;;
11539;SDS011;5826;54.756;9.192;2023-03-04T10:59:56;8.43;;;2.13;;
11539;SDS011;5826;54.756;9.192;2023-03-04T11:07:50;8.43;;;1.97;;
11539;SDS011;5826;54.756;9.192;2023-03-04T11:12:49;6.27;;;1.93;;
11539;SDS011;5826;54.756;9.192;2023-03-04T11:15:20;8.00;;;2.10;;
11539;SDS011;5826;54.756;9.192;2023-03-04T11:17:52;7.40;;;1.73;;
11539;SDS011;5826;54.756;9.192;2023-03-04T11:20:33;7.13;;;2.20;;
11539;SDS011;5826;54.756;9.192;2023-03-04T11:23:05;7.73;;;2.00;;
11539;SDS011;5826;54.756;9.192;2023-03-04T11:25:43;9.40;;;2.20;;
11539;SDS011;5826;54.756;9.192;2023-03-04T11:28:22;9.53;;;2.10;;
11539;SDS011;5826;54.756;9.192;2023-03-04T11:31:14;9.20;;;1.80;;
11539;SDS011;5826;54.756;9.192;2023-03-04T11:34:14;4.30;;;1.77;;
11539;SDS011;5826;54.756;9.192;2023-03-04T11:36:57;7.43;;;1.97;;
11539;SDS011;5826;54.756;9.192;2023-03-04T11:39:36;5.87;;;1.80;;
11539;SDS011;5826;54.756;9.192;2023-03-04T11:44:46;7.27;;;1.80;;
11539;SDS011;5826;54.756;9.192;2023-03-04T11:56:17;6.03;;;1.70;;
11539;SDS011;5826;54.756;9.192;2023-03-04T12:01:43;4.13;;;1.73;;
11539;SDS011;5826;54.756;9.192;2023-03-04T12:09:56;5.20;;;1.67;;
11539;SDS011;5826;54.756;9.192;2023-03-04T12:15:18;5.33;;;1.80;;
11539;SDS011;5826;54.756;9.192;2023-03-04T12:17:54;4.77;;;1.83;;
11539;SDS011;5826;54.756;9.192;2023-03-04T12:23:12;5.13;;;1.83;;
11539;SDS011;5826;54.756;9.192;2023-03-04T12:25:53;7.77;;;2.13;;
11539;SDS011;5826;54.756;9.192;2023-03-04T12:28:52;4.97;;;1.77;;
11539;SDS011;5826;54.756;9.192;2023-03-04T12:37:16;5.50;;;1.60;;
11539;SDS011;5826;54.756;9.192;2023-03-04T12:40:07;5.47;;;1.50;;
11539;SDS011;5826;54.756;9.192;2023-03-04T12:45:36;4.43;;;1.60;;
11539;SDS011;5826;54.756;9.192;2023-03-04T12:48:17;3.97;;;1.50;;
11539;SDS011;5826;54.756;9.192;2023-03-04T12:53:48;4.67;;;1.73;;
11539;SDS011;5826;54.756;9.192;2023-03-04T12:56:34;3.83;;;1.70;;
11539;SDS011;5826;54.756;9.192;2023-03-04T12:59:01;4.83;;;1.60;;
11539;SDS011;5826;54.756;9.192;2023-03-04T13:01:36;5.43;;;1.60;;
11539;SDS011;5826;54.756;9.192;2023-03-04T13:04:22;5.50;;;1.50;;
11539;SDS011;5826;54.756;9.192;2023-03-04T13:07:33;4.47;;;1.50;;
11539;SDS011;5826;54.756;9.192;2023-03-04T13:10:07;3.93;;;1.57;;
11539;SDS011;5826;54.756;9.192;2023-03-04T13:15:15;5.00;;;1.60;;
11539;SDS011;5826;54.756;9.192;2023-03-04T13:38:21;4.83;;;1.47;;
11539;SDS011;5826;54.756;9.192;2023-03-04T13:41:31;5.97;;;1.73;;
11539;SDS011;5826;54.756;9.192;2023-03-04T13:52:26;3.80;;;1.30;;
11539;SDS011;5826;54.756;9.192;2023-03-04T13:54:26;3.40;;;1.40;;
11539;SDS011;5826;54.756;9.192;2023-03-04T13:57:10;5.47;;;1.77;;
11539;SDS011;5826;54.756;9.192;2023-03-04T13:59:48;5.67;;;1.60;;
11539;SDS011;5826;54.756;9.192;2023-03-04T14:02:19;5.13;;;1.43;;
11539;SDS011;5826;54.756;9.192;2023-03-04T14:07:28;3.80;;;1.30;;
11539;SDS011;5826;54.756;9.192;2023-03-04T14:12:54;4.60;;;1.52;;
11539;SDS011;5826;54.756;9.192;2023-03-04T14:15:25;4.95;;;1.73;;
11539;SDS011;5826;54.756;9.192;2023-03-04T14:17:53;6.43;;;1.85;;
11539;SDS011;5826;54.756;9.192;2023-03-04T14:20:34;4.07;;;1.58;;
11539;SDS011;5826;54.756;9.192;2023-03-04T14:23:02;6.53;;;1.67;;
11539;SDS011;5826;54.756;9.192;2023-03-04T14:25:46;3.88;;;1.58;;
11539;SDS011;5826;54.756;9.192;2023-03-04T14:28:12;5.43;;;1.52;;
11539;SDS011;5826;54.756;9.192;2023-03-04T14:30:41;5.75;;;1.65;;
11539;SDS011;5826;54.756;9.192;2023-03-04T14:33:08;5.75;;;1.73;;
11539;SDS011;5826;54.756;9.192;2023-03-04T14:35:38;5.45;;;1.50;;
11539;SDS011;5826;54.756;9.192;2023-03-04T14:38:17;5.97;;;1.58;;
11539;SDS011;5826;54.756;9.192;2023-03-04T14:40:49;3.75;;;1.45;;
11539;SDS011;5826;54.756;9.192;2023-03-04T14:43:18;5.18;;;1.88;;
11539;SDS011;5826;54.756;9.192;2023-03-04T14:45:46;3.95;;;1.55;;
11539;SDS011;5826;54.756;9.192;2023-03-04T14:48:21;6.07;;;1.70;;
11539;SDS011;5826;54.756;9.192;2023-03-04T14:50:52;6.70;;;2.00;;
11539;SDS011;5826;54.756;9.192;2023-03-04T14:53:19;9.45;;;3.60;;
11539;SDS011;5826;54.756;9.192;2023-03-04T14:55:57;5.25;;;2.20;;
11539;SDS011;5826;54.756;9.192;2023-03-04T14:58:25;7.70;;;2.20;;
11539;SDS011;5826;54.756;9.192;2023-03-04T15:01:12;4.85;;;1.58;;
11539;SDS011;5826;54.756;9.192;2023-03-04T15:04:28;4.30;;;1.38;;
11539;SDS011;5826;54.756;9.192;2023-03-04T15:06:36;4.05;;;1.55;;
11539;SDS011;5826;54.756;9.192;2023-03-04T15:09:05;7.00;;;1.48;;
11539;SDS011;5826;54.756;9.192;2023-03-04T15:11:47;3.65;;;1.38;;
11539;SDS011;5826;54.756;9.192;2023-03-04T15:17:25;5.43;;;1.30;;
11539;SDS011;5826;54.756;9.192;2023-03-04T15:19:57;5.75;;;1.42;;
11539;SDS011;5826;54.756;9.192;2023-03-04T15:22:24;4.50;;;1.30;;
11539;SDS011;5826;54.756;9.192;2023-03-04T15:24:49;4.95;;;1.30;;
11539;SDS011;5826;54.756;9.192;2023-03-04T15:27:15;3.30;;;1.00;;
11539;SDS011;5826;54.756;9.192;2023-03-04T15:29:41;4.93;;;1.50;;
11539;SDS011;5826;54.756;9.192;2023-03-04T15:32:08;3.63;;;1.27;;
11539;SDS011;5826;54.756;9.192;2023-03-04T15:34:35;3.50;;;1.30;;
11539;SDS011;5826;54.756;9.192;2023-03-04T15:37:00;2.67;;;1.00;;
11539;SDS011;5826;54.756;9.192;2023-03-04T15:39:26;4.38;;;1.45;;
11539;SDS011;5826;54.756;9.192;2023-03-04T15:41:52;3.45;;;1.10;;
11539;SDS011;5826;54.756;9.192;2023-03-04T15:44:19;4.75;;;1.60;;
11539;SDS011;5826;54.756;9.192;2023-03-04T15:46:44;3.78;;;1.17;;
11539;SDS011;5826;54.756;9.192;2023-03-04T15:49:10;5.28;;;1.30;;
11539;SDS011;5826;54.756;9.192;2023-03-04T15:51:36;2.83;;;1.20;;
11539;SDS011;5826;54.756;9.192;2023-03-04T15:54:01;3.67;;;1.30;;
11539;SDS011;5826;54.756;9.192;2023-03-04T15:56:28;4.68;;;1.50;;
11539;SDS011;5826;54.756;9.192;2023-03-04T15:58:56;3.58;;;1.20;;
11539;SDS011;5826;54.756;9.192;2023-03-04T16:01:33;5.03;;;1.52;;
11539;SDS011;5826;54.756;9.192;2023-03-04T16:03:59;5.10;;;1.40;;
11539;SDS011;5826;54.756;9.192;2023-03-04T16:06:26;5.32;;;1.77;;
11539;SDS011;5826;54.756;9.192;2023-03-04T16:08:53;3.13;;;1.38;;
11539;SDS011;5826;54.756;9.192;2023-03-04T16:11:20;6.80;;;1.60;;
11539;SDS011;5826;54.756;9.192;2023-03-04T16:13:48;6.25;;;1.70;;
11539;SDS011;5826;54.756;9.192;2023-03-04T16:16:14;4.00;;;1.40;;
11539;SDS011;5826;54.756;9.192;2023-03-04T16:18:40;5.15;;;1.30;;
11539;SDS011;5826;54.756;9.192;2023-03-04T16:21:06;5.68;;;1.67;;
11539;SDS011;5826;54.756;9.192;2023-03-04T16:23:40;5.30;;;1.73;;
11539;SDS011;5826;54.756;9.192;2023-03-04T16:26:12;8.48;;;1.42;;
11539;SDS011;5826;54.756;9.192;2023-03-04T16:28:40;4.45;;;1.25;;
11539;SDS011;5826;54.756;9.192;2023-03-04T16:31:06;5.25;;;1.40;;
11539;SDS011;5826;54.756;9.192;2023-03-04T16:33:31;3.28;;;1.30;;
11539;SDS011;5826;54.756;9.192;2023-03-04T16:35:57;4.30;;;1.40;;
11539;SDS011;5826;54.756;9.192;2023-03-04T16:38:26;3.30;;;1.13;;
11539;SDS011;5826;54.756;9.192;2023-03-04T16:40:54;3.33;;;1.60;;
11539;SDS011;5826;54.756;9.192;2023-03-04T16:43:21;4.22;;;1.42;;